Time;durP1;ratioP1;P1;durP2;ratioP2;P2;SDS_P1;SDS_P2;PMS_P1;PMS_P2;Temp;Humidity;BMP_temperature;BMP_pressure;BME280_temperature;BME280_humidity;BME280_pressure;Samples;Min_cycle;Max_cycle;Signal;HPM_P1;HPM_P2
2023/02/05 00:00:42;;;;;;;;;;;7.40;99.90;;;;;;5046682;28;20377;-63
2023/02/05 00:03:07;;;;;;;;;;;7.40;99.90;;;;;;5049644;28;20361;-63
2023/02/05 00:05:32;;;;;;;;;;;7.40;99.90;;;;;;5049042;28;20019;-62
2023/02/05 00:07:58;;;;;;;;;;;7.40;99.90;;;;;;5044617;28;20010;-63
2023/02/05 00:10:23;;;;;;;;;;;7.30;99.90;;;;;;5055315;28;19935;-63
2023/02/05 00:12:49;;;;;;;;;;;7.30;99.90;;;;;;5050090;28;19920;-63
2023/02/05 00:15:14;;;;;;;;;;;7.20;99.90;;;;;;5052049;28;20149;-63
2023/02/05 00:17:40;;;;;;;;;;;7.20;99.90;;;;;;5052364;28;19936;-63
2023/02/05 00:20:05;;;;;;;;;;;7.10;99.90;;;;;;5034482;28;20012;-63
2023/02/05 00:22:31;;;;;;;;;;;7.20;99.90;;;;;;5051538;28;19919;-62
2023/02/05 00:24:56;;;;;;;;;;;7.20;99.90;;;;;;5051833;28;19991;-62
2023/02/05 00:27:22;;;;;;;;;;;7.30;99.90;;;;;;5055492;28;19913;-63
2023/02/05 00:29:47;;;;;;;;;;;7.30;99.90;;;;;;5045429;28;19913;-63
2023/02/05 00:32:13;;;;;;;;;;;7.20;99.90;;;;;;5050511;28;19971;-64
2023/02/05 00:34:38;;;;;;;;;;;7.10;99.90;;;;;;5055983;28;19920;-63
2023/02/05 00:37:04;;;;;;;;;;;7.10;99.90;;;;;;5051787;28;19921;-63
2023/02/05 00:39:29;;;;;;;;;;;7.10;99.90;;;;;;5046254;28;19913;-62
2023/02/05 00:41:54;;;;;;;;;;;7.10;99.90;;;;;;5050148;28;19913;-62
2023/02/05 00:44:20;;;;;;;;;;;7.10;99.90;;;;;;5048190;28;20384;-60
2023/02/05 00:46:45;;;;;;;;;;;7.00;99.90;;;;;;5048776;28;20278;-62
2023/02/05 00:49:11;;;;;;;;;;;7.00;99.90;;;;;;5044966;28;19920;-62
2023/02/05 00:51:36;;;;;;;;;;;7.10;99.90;;;;;;5047823;28;19921;-63
2023/02/05 00:54:02;;;;;;;;;;;7.10;99.90;;;;;;5047925;28;19920;-64
2023/02/05 00:56:27;;;;;;;;;;;7.10;99.90;;;;;;5048480;28;19923;-64
2023/02/05 00:58:52;;;;;;;;;;;7.10;99.90;;;;;;5047925;28;19917;-64
2023/02/05 01:01:18;;;;;;;;;;;7.10;99.90;;;;;;5048563;28;19917;-63
2023/02/05 01:03:43;;;;;;;;;;;7.10;99.90;;;;;;5050002;28;19920;-62
2023/02/05 01:06:09;;;;;;;;;;;7.20;99.90;;;;;;5049593;28;19928;-63
2023/02/05 01:08:34;;;;;;;;;;;7.10;99.90;;;;;;5046777;28;20384;-64
2023/02/05 01:11:00;;;;;;;;;;;7.00;99.90;;;;;;5044115;28;19963;-62
2023/02/05 01:13:26;;;;;;;;;;;7.00;99.90;;;;;;5045605;28;19917;-63
2023/02/05 01:15:51;;;;;;;;;;;6.90;99.90;;;;;;5047452;28;19978;-64
2023/02/05 01:18:17;;;;;;;;;;;6.90;99.90;;;;;;5050883;28;19959;-63
2023/02/05 01:20:42;;;;;;;;;;;6.80;99.90;;;;;;5024840;28;19924;-63
2023/02/05 01:23:08;;;;;;;;;;;6.80;99.90;;;;;;5044092;28;19952;-63
2023/02/05 01:25:34;;;;;;;;;;;6.70;99.90;;;;;;5053264;28;19956;-63
2023/02/05 01:27:59;;;;;;;;;;;6.70;99.90;;;;;;5047903;28;19956;-63
2023/02/05 01:30:25;;;;;;;;;;;6.80;99.90;;;;;;5044748;28;20205;-64
2023/02/05 01:32:50;;;;;;;;;;;6.80;99.90;;;;;;5027293;28;20015;-63
2023/02/05 01:35:16;;;;;;;;;;;6.80;99.90;;;;;;5047024;28;19917;-63
2023/02/05 01:37:41;;;;;;;;;;;6.90;99.90;;;;;;5051032;28;19992;-61
2023/02/05 01:40:07;;;;;;;;;;;6.90;99.90;;;;;;5045741;28;19944;-63
2023/02/05 01:42:33;;;;;;;;;;;6.90;99.90;;;;;;5047723;28;19920;-64
2023/02/05 01:45:17;;;;;;;;;;;6.80;99.90;;;;;;5046399;28;20335;-64
2023/02/05 01:47:42;;;;;;;;;;;6.80;99.90;;;;;;5047330;28;19917;-64
2023/02/05 01:50:08;;;;;;;;;;;6.80;99.90;;;;;;5050451;28;19920;-63
2023/02/05 01:52:33;;;;;;;;;;;6.80;99.90;;;;;;5042008;28;19955;-63
2023/02/05 01:55:01;;;;;;;;;;;6.80;99.90;;;;;;5045942;28;20772;-63
2023/02/05 01:57:26;;;;;;;;;;;6.90;99.90;;;;;;5049948;28;19962;-63
2023/02/05 01:59:52;;;;;;;;;;;6.90;99.90;;;;;;5029951;28;19920;-63
2023/02/05 02:02:17;;;;;;;;;;;6.90;99.90;;;;;;5052761;28;19920;-64
2023/02/05 02:04:48;;;;;;;;;;;6.90;99.90;;;;;;5053104;28;19912;-63
2023/02/05 02:07:16;;;;;;;;;;;6.90;99.90;;;;;;5046518;28;20388;-63
2023/02/05 02:09:43;;;;;;;;;;;6.80;99.90;;;;;;5049374;28;19913;-64
2023/02/05 02:12:09;;;;;;;;;;;6.80;99.90;;;;;;5046500;28;20373;-64
2023/02/05 02:14:36;;;;;;;;;;;6.80;99.90;;;;;;5046300;28;19924;-64
2023/02/05 02:17:02;;;;;;;;;;;6.90;99.90;;;;;;5050996;28;19919;-63
2023/02/05 02:19:32;;;;;;;;;;;6.80;99.90;;;;;;5046396;28;19913;-61
2023/02/05 02:22:16;;;;;;;;;;;6.80;99.90;;;;;;5045240;28;20289;-63
2023/02/05 02:24:57;;;;;;;;;;;6.80;99.90;;;;;;5048973;28;19997;-64
2023/02/05 02:27:43;;;;;;;;;;;6.90;99.90;;;;;;5043729;28;19913;-63
2023/02/05 02:30:15;;;;;;;;;;;6.80;99.90;;;;;;5045587;28;19913;-64
2023/02/05 02:32:44;;;;;;;;;;;6.70;99.90;;;;;;5046354;28;19929;-64
2023/02/05 02:35:29;;;;;;;;;;;6.60;99.90;;;;;;5048719;28;19917;-63
2023/02/05 02:38:30;;;;;;;;;;;6.70;99.90;;;;;;5046421;28;19975;-63
2023/02/05 02:41:02;;;;;;;;;;;6.70;99.90;;;;;;4974796;28;19965;-63
2023/02/05 02:43:39;;;;;;;;;;;6.80;99.90;;;;;;5033325;28;19920;-62
2023/02/05 02:46:08;;;;;;;;;;;6.90;99.90;;;;;;5042453;28;19936;-62
2023/02/05 02:48:34;;;;;;;;;;;6.80;99.90;;;;;;5045337;28;19917;-62
2023/02/05 02:51:00;;;;;;;;;;;6.90;99.90;;;;;;5025215;28;19917;-63
2023/02/05 02:53:28;;;;;;;;;;;6.90;99.90;;;;;;5042069;28;19923;-63
2023/02/05 02:55:54;;;;;;;;;;;6.80;99.90;;;;;;5047709;28;20394;-63
2023/02/05 02:58:22;;;;;;;;;;;6.80;99.90;;;;;;5048295;28;19963;-63
2023/02/05 03:00:48;;;;;;;;;;;6.80;99.90;;;;;;5041510;28;19952;-63
2023/02/05 03:03:16;;;;;;;;;;;6.80;99.90;;;;;;5044982;28;20458;-63
2023/02/05 03:05:43;;;;;;;;;;;6.70;99.90;;;;;;5049506;28;19912;-63
2023/02/05 03:08:12;;;;;;;;;;;6.80;99.90;;;;;;5046678;28;19913;-62
2023/02/05 03:10:39;;;;;;;;;;;6.80;99.90;;;;;;5049439;28;19928;-62
2023/02/05 03:13:06;;;;;;;;;;;6.80;99.90;;;;;;5050884;28;19999;-61
2023/02/05 03:15:31;;;;;;;;;;;6.80;99.90;;;;;;5047312;28;19991;-63
2023/02/05 03:17:57;;;;;;;;;;;6.80;99.90;;;;;;5051444;28;20453;-62
2023/02/05 03:20:26;;;;;;;;;;;6.80;99.90;;;;;;5050828;28;20396;-63
2023/02/05 03:22:52;;;;;;;;;;;6.80;99.90;;;;;;5046972;28;20007;-62
2023/02/05 03:25:18;;;;;;;;;;;6.80;99.90;;;;;;5049938;28;20023;-62
2023/02/05 03:27:44;;;;;;;;;;;6.90;99.90;;;;;;5047374;28;20579;-61
2023/02/05 03:30:10;;;;;;;;;;;6.90;99.90;;;;;;5051198;28;19913;-62
2023/02/05 03:32:44;;;;;;;;;;;6.90;99.90;;;;;;5052009;28;19912;-63
2023/02/05 03:35:22;;;;;;;;;;;6.90;99.90;;;;;;5072300;22;19983;-62
2023/02/05 03:38:23;;;;;;;;;;;6.80;99.90;;;;;;5068954;28;19955;-62
2023/02/05 03:40:56;;;;;;;;;;;6.80;99.90;;;;;;5003194;28;19917;-63
2023/02/05 03:43:30;;;;;;;;;;;6.80;99.90;;;;;;5069148;28;19912;-63
2023/02/05 03:45:56;;;;;;;;;;;6.80;99.90;;;;;;5068877;28;20382;-63
2023/02/05 03:48:40;;;;;;;;;;;6.90;99.90;;;;;;5072052;28;20003;-62
2023/02/05 03:51:25;;;;;;;;;;;6.80;99.90;;;;;;5073129;28;20392;-62
2023/02/05 03:54:09;;;;;;;;;;;6.80;99.90;;;;;;5070755;28;19913;-61
2023/02/05 03:56:42;;;;;;;;;;;6.80;99.90;;;;;;5069482;28;19927;-63
2023/02/05 03:59:09;;;;;;;;;;;6.70;99.90;;;;;;5079311;28;19949;-62
2023/02/05 04:01:35;;;;;;;;;;;6.70;99.90;;;;;;5074874;28;19912;-63
2023/02/05 04:04:00;;;;;;;;;;;6.70;99.90;;;;;;5076717;28;19919;-62
2023/02/05 04:06:25;;;;;;;;;;;6.70;99.90;;;;;;5070977;28;19952;-62
2023/02/05 04:08:51;;;;;;;;;;;6.80;99.90;;;;;;5069024;28;19913;-62
2023/02/05 04:11:16;;;;;;;;;;;6.80;99.90;;;;;;5074462;28;19916;-61
2023/02/05 04:13:42;;;;;;;;;;;6.80;99.90;;;;;;5076142;28;19912;-63
2023/02/05 04:16:07;;;;;;;;;;;6.80;99.90;;;;;;5070085;28;19920;-62
2023/02/05 04:18:33;;;;;;;;;;;6.70;99.90;;;;;;5072895;28;19912;-63
2023/02/05 04:20:59;;;;;;;;;;;6.70;99.90;;;;;;5074337;28;19923;-62
2023/02/05 04:23:24;;;;;;;;;;;6.70;99.90;;;;;;5067560;28;19951;-63
2023/02/05 04:25:53;;;;;;;;;;;6.70;99.90;;;;;;5071607;28;20405;-63
2023/02/05 04:28:19;;;;;;;;;;;6.70;99.90;;;;;;5069843;28;19920;-63
2023/02/05 04:30:44;;;;;;;;;;;6.70;99.90;;;;;;5070896;28;19920;-63
2023/02/05 04:33:10;;;;;;;;;;;6.80;99.90;;;;;;5075260;28;20387;-62
2023/02/05 04:35:35;;;;;;;;;;;6.80;99.90;;;;;;5103301;27;20341;-63
2023/02/05 04:38:00;;;;;;;;;;;6.80;99.90;;;;;;5112289;27;19919;-62
2023/02/05 04:40:26;;;;;;;;;;;6.80;99.90;;;;;;5109208;27;19965;-62
2023/02/05 04:42:51;;;;;;;;;;;6.90;99.90;;;;;;5113252;27;19916;-58
2023/02/05 04:45:17;;;;;;;;;;;7.10;99.90;;;;;;5111252;27;19969;-62
2023/02/05 04:47:42;;;;;;;;;;;7.10;99.90;;;;;;5111112;27;19912;-63
2023/02/05 04:50:08;;;;;;;;;;;7.20;99.90;;;;;;5111624;27;19912;-62
2023/02/05 04:52:33;;;;;;;;;;;7.10;99.90;;;;;;5118693;27;20356;-63
2023/02/05 04:54:59;;;;;;;;;;;7.10;99.90;;;;;;5108294;27;20542;-62
2023/02/05 04:57:24;;;;;;;;;;;7.10;99.90;;;;;;5114523;27;19912;-63
2023/02/05 04:59:50;;;;;;;;;;;7.00;99.90;;;;;;5115058;27;19915;-62
2023/02/05 05:02:15;;;;;;;;;;;7.10;99.90;;;;;;5111556;27;19912;-63
2023/02/05 05:04:41;;;;;;;;;;;7.00;99.90;;;;;;5113830;27;19939;-63
2023/02/05 05:07:08;;;;;;;;;;;7.00;99.90;;;;;;5111503;27;20342;-61
2023/02/05 05:09:34;;;;;;;;;;;6.90;99.90;;;;;;5111237;27;19912;-58
2023/02/05 05:12:00;;;;;;;;;;;6.80;99.90;;;;;;5112801;27;19974;-62
2023/02/05 05:14:26;;;;;;;;;;;6.90;99.90;;;;;;5113008;27;20429;-63
2023/02/05 05:16:51;;;;;;;;;;;7.00;99.90;;;;;;5115233;27;20313;-63
2023/02/05 05:19:17;;;;;;;;;;;7.10;99.90;;;;;;5110870;27;19923;-63
2023/02/05 05:21:42;;;;;;;;;;;7.20;99.90;;;;;;5111357;27;19923;-63
2023/02/05 05:24:08;;;;;;;;;;;7.30;99.90;;;;;;5114749;27;19922;-64
2023/02/05 05:26:33;;;;;;;;;;;7.30;99.90;;;;;;5110377;27;19918;-64
2023/02/05 05:28:59;;;;;;;;;;;7.40;99.90;;;;;;5113309;27;19918;-64
2023/02/05 05:31:24;;;;;;;;;;;7.40;99.90;;;;;;5110316;27;20450;-64
2023/02/05 05:33:50;;;;;;;;;;;7.40;99.90;;;;;;5112475;27;20302;-62
2023/02/05 05:36:16;;;;;;;;;;;7.40;99.90;;;;;;5110394;27;19924;-64
2023/02/05 05:38:41;;;;;;;;;;;7.40;99.90;;;;;;5115894;27;19957;-64
2023/02/05 05:43:53;;;;;;;;;;;7.40;99.90;;;;;;5112654;27;19966;-66
2023/02/05 05:46:25;;;;;;;;;;;7.30;99.90;;;;;;5110025;27;19986;-65
2023/02/05 05:48:51;;;;;;;;;;;7.30;99.90;;;;;;5113137;27;19915;-65
2023/02/05 05:51:17;;;;;;;;;;;7.30;99.90;;;;;;5110613;27;19919;-64
2023/02/05 05:53:43;;;;;;;;;;;7.40;99.90;;;;;;5108802;27;19912;-64
2023/02/05 05:56:09;;;;;;;;;;;7.40;99.90;;;;;;5111300;27;19924;-64
2023/02/05 05:58:34;;;;;;;;;;;7.40;99.90;;;;;;5110195;27;20071;-65
2023/02/05 06:01:02;;;;;;;;;;;7.30;99.90;;;;;;5107779;27;22304;-64
2023/02/05 06:03:27;;;;;;;;;;;7.30;99.90;;;;;;5118892;27;19919;-65
2023/02/05 06:05:53;;;;;;;;;;;7.30;99.90;;;;;;5113580;27;19943;-65
2023/02/05 06:08:18;;;;;;;;;;;7.20;99.90;;;;;;5114155;27;19911;-65
2023/02/05 06:10:44;;;;;;;;;;;7.20;99.90;;;;;;5112555;27;19977;-65
2023/02/05 06:13:09;;;;;;;;;;;7.20;99.90;;;;;;5107295;27;19916;-64
2023/02/05 06:15:35;;;;;;;;;;;7.20;99.90;;;;;;5110502;27;20383;-64
2023/02/05 06:18:00;;;;;;;;;;;7.20;99.90;;;;;;5112446;27;20407;-64
2023/02/05 06:20:26;;;;;;;;;;;7.20;99.90;;;;;;5112291;27;19912;-65
2023/02/05 06:22:51;;;;;;;;;;;7.20;99.90;;;;;;5115043;27;20006;-64
2023/02/05 06:25:17;;;;;;;;;;;7.20;99.90;;;;;;5107864;28;20505;-64
2023/02/05 06:27:42;;;;;;;;;;;7.20;99.90;;;;;;5111565;27;20002;-64
2023/02/05 06:30:09;;;;;;;;;;;7.30;99.90;;;;;;5112196;27;19919;-64
2023/02/05 06:32:34;;;;;;;;;;;7.30;99.90;;;;;;5112655;27;19919;-64
2023/02/05 06:35:00;;;;;;;;;;;7.40;99.90;;;;;;5109822;27;20299;-64
2023/02/05 06:37:27;;;;;;;;;;;7.40;99.90;;;;;;5111136;27;19920;-63
2023/02/05 06:39:53;;;;;;;;;;;7.40;99.90;;;;;;5105156;28;19912;-64
2023/02/05 06:42:18;;;;;;;;;;;7.40;99.90;;;;;;5095400;28;19939;-64
2023/02/05 06:44:44;;;;;;;;;;;7.50;99.90;;;;;;5109810;28;19955;-63
2023/02/05 06:47:09;;;;;;;;;;;7.40;99.90;;;;;;5112432;28;19943;-64
2023/02/05 06:49:35;;;;;;;;;;;7.40;99.90;;;;;;5108316;28;19964;-64
2023/02/05 06:52:00;;;;;;;;;;;7.50;99.90;;;;;;5120859;28;19918;-64
2023/02/05 06:54:26;;;;;;;;;;;7.50;99.90;;;;;;5106563;28;20380;-63
2023/02/05 06:56:51;;;;;;;;;;;7.50;99.90;;;;;;5112083;28;19912;-62
2023/02/05 06:59:16;;;;;;;;;;;7.50;99.90;;;;;;5108931;28;20333;-64
2023/02/05 07:01:42;;;;;;;;;;;7.60;99.90;;;;;;5101538;28;19919;-64
2023/02/05 07:04:07;;;;;;;;;;;7.60;99.90;;;;;;5112598;28;19912;-63
2023/02/05 07:06:33;;;;;;;;;;;7.60;99.90;;;;;;5108734;28;19912;-64
2023/02/05 07:08:58;;;;;;;;;;;7.60;99.90;;;;;;5108002;28;19924;-65
2023/02/05 07:11:24;;;;;;;;;;;7.60;99.90;;;;;;5113425;28;19946;-64
2023/02/05 07:13:49;;;;;;;;;;;7.60;99.90;;;;;;5111340;28;19916;-65
2023/02/05 07:16:15;;;;;;;;;;;7.60;99.90;;;;;;5112883;28;20006;-64
2023/02/05 07:18:40;;;;;;;;;;;7.60;99.90;;;;;;5110398;28;19919;-64
2023/02/05 07:21:07;;;;;;;;;;;7.60;99.90;;;;;;5110114;28;20387;-64
2023/02/05 07:23:32;;;;;;;;;;;7.60;99.90;;;;;;5111192;28;20398;-64
2023/02/05 07:26:04;;;;;;;;;;;7.60;99.90;;;;;;5111040;28;19919;-64
2023/02/05 07:28:30;;;;;;;;;;;7.60;99.90;;;;;;5110248;28;19919;-65
2023/02/05 07:31:01;;;;;;;;;;;7.60;99.90;;;;;;5108812;28;19912;-64
2023/02/05 07:33:26;;;;;;;;;;;7.50;99.90;;;;;;5107028;28;19951;-64
2023/02/05 07:35:53;;;;;;;;;;;7.50;99.90;;;;;;5105439;28;20359;-63
2023/02/05 07:38:18;;;;;;;;;;;7.50;99.90;;;;;;5108958;28;21783;-63
2023/02/05 07:40:44;;;;;;;;;;;7.50;99.90;;;;;;5101699;28;19923;-64
2023/02/05 07:43:09;;;;;;;;;;;7.50;99.90;;;;;;5110558;28;19922;-64
2023/02/05 07:45:35;;;;;;;;;;;7.50;99.90;;;;;;5107163;28;19942;-64
2023/02/05 07:48:00;;;;;;;;;;;7.50;99.90;;;;;;5111022;28;20032;-64
2023/02/05 07:50:26;;;;;;;;;;;7.50;99.90;;;;;;5113527;27;19919;-64
2023/02/05 07:52:51;;;;;;;;;;;7.50;99.90;;;;;;5108367;27;19912;-64
2023/02/05 07:55:17;;;;;;;;;;;7.50;99.90;;;;;;5109816;27;20206;-63
2023/02/05 07:57:42;;;;;;;;;;;7.50;99.90;;;;;;5116500;27;20329;-63
2023/02/05 08:00:08;;;;;;;;;;;7.50;99.90;;;;;;5112019;27;19923;-64
2023/02/05 08:02:34;;;;;;;;;;;7.50;99.90;;;;;;5114390;27;20303;-64
2023/02/05 08:04:59;;;;;;;;;;;7.50;99.90;;;;;;5111508;27;19912;-64
2023/02/05 08:07:24;;;;;;;;;;;7.50;99.90;;;;;;5117243;27;20367;-63
2023/02/05 08:09:50;;;;;;;;;;;7.50;99.90;;;;;;5111927;27;19911;-64
2023/02/05 08:12:15;;;;;;;;;;;7.50;99.90;;;;;;5114429;27;19976;-64
2023/02/05 08:14:41;;;;;;;;;;;7.50;99.90;;;;;;5115635;27;19912;-64
2023/02/05 08:17:06;;;;;;;;;;;7.50;99.90;;;;;;5115764;27;20495;-64
2023/02/05 08:19:32;;;;;;;;;;;7.50;99.90;;;;;;5113282;27;19916;-63
2023/02/05 08:21:57;;;;;;;;;;;7.50;99.90;;;;;;5113448;27;19923;-65
2023/02/05 08:24:23;;;;;;;;;;;7.50;99.90;;;;;;5112364;27;19912;-64
2023/02/05 08:26:48;;;;;;;;;;;7.50;99.90;;;;;;5118311;27;19950;-65
2023/02/05 08:29:13;;;;;;;;;;;7.50;99.90;;;;;;5110722;27;19912;-66
2023/02/05 08:31:39;;;;;;;;;;;7.50;99.90;;;;;;5121587;27;19935;-65
2023/02/05 08:34:04;;;;;;;;;;;7.50;99.90;;;;;;5092453;28;19920;-63
2023/02/05 08:36:30;;;;;;;;;;;7.50;99.90;;;;;;5111931;27;19916;-65
2023/02/05 08:38:55;;;;;;;;;;;7.40;99.90;;;;;;5108994;27;20035;-65
2023/02/05 08:41:21;;;;;;;;;;;7.50;99.90;;;;;;5110949;27;19911;-66
2023/02/05 08:43:47;;;;;;;;;;;7.40;99.90;;;;;;5114339;27;19915;-65
2023/02/05 08:46:14;;;;;;;;;;;7.40;99.90;;;;;;5113644;27;19946;-64
2023/02/05 08:48:40;;;;;;;;;;;7.40;99.90;;;;;;5109703;27;19920;-65
2023/02/05 08:51:07;;;;;;;;;;;7.40;99.90;;;;;;5112414;27;19918;-65
2023/02/05 08:53:33;;;;;;;;;;;7.40;99.90;;;;;;5109986;27;19912;-65
2023/02/05 08:55:59;;;;;;;;;;;7.40;99.90;;;;;;5112829;27;19924;-65
2023/02/05 08:58:25;;;;;;;;;;;7.40;99.90;;;;;;5113535;27;19911;-66
2023/02/05 09:00:50;;;;;;;;;;;7.40;99.90;;;;;;5113292;27;19919;-66
2023/02/05 09:03:16;;;;;;;;;;;7.40;99.90;;;;;;5112442;27;20371;-65
2023/02/05 09:05:41;;;;;;;;;;;7.40;99.90;;;;;;5108095;27;20332;-65
2023/02/05 09:08:07;;;;;;;;;;;7.40;99.90;;;;;;5115105;27;19970;-65
2023/02/05 09:10:32;;;;;;;;;;;7.40;99.90;;;;;;5120628;27;19965;-66
2023/02/05 09:12:58;;;;;;;;;;;7.30;99.90;;;;;;5114253;27;19912;-66
2023/02/05 09:15:23;;;;;;;;;;;7.30;99.90;;;;;;5095653;27;20352;-65
2023/02/05 09:17:49;;;;;;;;;;;7.20;99.90;;;;;;5111506;27;20268;-64
2023/02/05 09:20:14;;;;;;;;;;;7.00;99.90;;;;;;5114688;27;19911;-64
2023/02/05 09:22:39;;;;;;;;;;;6.90;99.90;;;;;;5116203;27;19998;-64
2023/02/05 09:25:06;;;;;;;;;;;6.90;99.90;;;;;;5113928;27;19916;-64
2023/02/05 09:27:31;;;;;;;;;;;6.80;99.90;;;;;;5110149;27;19915;-64
2023/02/05 09:29:56;;;;;;;;;;;6.70;99.90;;;;;;5110012;27;19964;-65
2023/02/05 09:32:22;;;;;;;;;;;6.70;99.90;;;;;;5107762;27;19912;-63
2023/02/05 09:34:48;;;;;;;;;;;6.70;99.90;;;;;;5112819;23;19931;-86
2023/02/05 09:37:14;;;;;;;;;;;6.60;99.90;;;;;;5077831;28;19974;-87
2023/02/05 09:39:40;;;;;;;;;;;6.60;99.90;;;;;;5059874;28;19952;-87
2023/02/05 09:42:26;;;;;;;;;;;6.60;99.90;;;;;;5060837;28;19934;-85
2023/02/05 09:45:10;;;;;;;;;;;6.50;99.90;;;;;;5066630;28;19909;-86
2023/02/05 09:47:38;;;;;;;;;;;6.60;99.90;;;;;;5059707;28;19916;-88
2023/02/05 09:50:28;;;;;;;;;;;6.60;99.90;;;;;;5058861;28;19968;-87
2023/02/05 09:53:04;;;;;;;;;;;6.60;99.90;;;;;;5059189;28;19908;-86
2023/02/05 09:55:31;;;;;;;;;;;6.60;99.90;;;;;;5039049;28;20259;-88
2023/02/05 09:58:10;;;;;;;;;;;6.60;99.90;;;;;;5039537;28;19916;-88
2023/02/05 10:00:41;;;;;;;;;;;6.50;99.90;;;;;;5038390;28;20304;-86
2023/02/05 10:03:09;;;;;;;;;;;6.60;99.90;;;;;;5058409;28;19968;-86
2023/02/05 10:05:39;;;;;;;;;;;6.60;99.90;;;;;;5040318;28;19913;-87
2023/02/05 10:08:13;;;;;;;;;;;6.60;99.90;;;;;;5040491;28;19920;-87
2023/02/05 10:10:43;;;;;;;;;;;6.60;99.90;;;;;;5039771;28;20420;-86
2023/02/05 10:13:24;;;;;;;;;;;6.60;99.90;;;;;;5039188;28;19931;-88
2023/02/05 10:15:56;;;;;;;;;;;6.60;99.90;;;;;;5038881;28;19913;-86
2023/02/05 10:18:32;;;;;;;;;;;6.60;99.90;;;;;;5040444;28;19935;-87
2023/02/05 10:21:16;;;;;;;;;;;6.60;99.90;;;;;;5040049;28;19959;-87
2023/02/05 10:23:51;;;;;;;;;;;6.60;99.90;;;;;;5038330;28;19909;-87
2023/02/05 10:26:17;;;;;;;;;;;6.60;99.90;;;;;;5048709;28;19908;-87
2023/02/05 10:28:45;;;;;;;;;;;6.70;99.90;;;;;;5042846;28;20341;-87
2023/02/05 10:31:17;;;;;;;;;;;6.60;99.90;;;;;;5052123;28;19924;-87
2023/02/05 10:33:48;;;;;;;;;;;6.70;99.90;;;;;;5057805;28;20740;-87
2023/02/05 10:36:15;;;;;;;;;;;6.70;99.90;;;;;;5060195;28;19916;-87
2023/02/05 10:38:42;;;;;;;;;;;6.70;99.90;;;;;;5067221;23;19925;-62
2023/02/05 10:41:15;;;;;;;;;;;6.70;99.90;;;;;;5063110;28;19916;-62
2023/02/05 10:43:46;;;;;;;;;;;6.70;99.90;;;;;;5071839;28;19958;-62
2023/02/05 10:46:12;;;;;;;;;;;6.70;99.90;;;;;;5068588;28;19944;-63
2023/02/05 10:48:55;;;;;;;;;;;6.70;99.90;;;;;;5066677;28;19912;-63
2023/02/05 10:51:23;;;;;;;;;;;6.70;99.90;;;;;;5046150;28;20376;-63
2023/02/05 10:53:48;;;;;;;;;;;6.70;99.90;;;;;;5059692;28;19913;-63
2023/02/05 10:56:17;;;;;;;;;;;6.70;99.90;;;;;;5065774;28;19934;-63
2023/02/05 10:58:43;;;;;;;;;;;6.80;99.90;;;;;;5064699;28;20015;-63
2023/02/05 11:01:14;;;;;;;;;;;6.80;99.90;;;;;;5066822;28;20046;-63
2023/02/05 11:03:44;;;;;;;;;;;6.70;99.90;;;;;;5065393;28;19913;-63
2023/02/05 11:06:10;;;;;;;;;;;6.80;99.90;;;;;;5067058;28;19913;-63
2023/02/05 11:08:44;;;;;;;;;;;6.80;99.90;;;;;;5066072;28;20441;-65
2023/02/05 11:11:18;;;;;;;;;;;6.80;99.90;;;;;;5066485;28;20292;-63
2023/02/05 11:13:47;;;;;;;;;;;6.80;99.90;;;;;;5063994;28;19966;-63
2023/02/05 11:16:13;;;;;;;;;;;6.80;99.90;;;;;;5064846;28;19916;-63
2023/02/05 11:18:40;;;;;;;;;;;6.80;99.90;;;;;;5064055;28;19935;-62
2023/02/05 11:21:08;;;;;;;;;;;6.80;99.90;;;;;;5065842;28;19912;-62
2023/02/05 11:23:38;;;;;;;;;;;6.80;99.90;;;;;;5066596;28;19918;-62
2023/02/05 11:26:18;;;;;;;;;;;6.90;99.90;;;;;;5069707;28;19917;-63
2023/02/05 11:28:44;;;;;;;;;;;6.90;99.90;;;;;;5067911;28;20020;-61
2023/02/05 11:31:26;;;;;;;;;;;6.80;99.90;;;;;;5068532;28;19990;-63
2023/02/05 11:34:07;;;;;;;;;;;6.90;99.90;;;;;;5065746;28;19912;-63
2023/02/05 11:36:34;;;;;;;;;;;6.90;99.90;;;;;;5067840;28;19932;-63
2023/02/05 11:39:00;;;;;;;;;;;6.90;99.90;;;;;;5070304;28;19920;-62
2023/02/05 11:41:46;;;;;;;;;;;6.90;99.90;;;;;;5067431;28;19923;-63
2023/02/05 11:44:16;;;;;;;;;;;6.90;99.90;;;;;;5066313;28;20009;-62
2023/02/05 11:46:43;;;;;;;;;;;6.90;99.90;;;;;;5065970;28;19938;-62
2023/02/05 11:49:15;;;;;;;;;;;6.90;99.90;;;;;;5065532;28;19920;-63
2023/02/05 11:51:43;;;;;;;;;;;6.90;99.90;;;;;;5068025;28;19912;-63
2023/02/05 11:54:24;;;;;;;;;;;6.90;99.90;;;;;;5072625;28;20006;-63
2023/02/05 11:57:03;;;;;;;;;;;6.90;99.90;;;;;;5066453;28;19925;-63
2023/02/05 11:59:29;;;;;;;;;;;6.90;99.90;;;;;;5069465;28;19962;-63
2023/02/05 12:02:13;;;;;;;;;;;6.80;99.90;;;;;;5069379;28;19913;-63
2023/02/05 12:04:43;;;;;;;;;;;6.80;99.90;;;;;;5066673;28;19961;-63
2023/02/05 12:07:11;;;;;;;;;;;6.80;99.90;;;;;;5070478;28;19974;-63
2023/02/05 12:09:37;;;;;;;;;;;6.80;99.90;;;;;;5069020;28;19947;-63
2023/02/05 12:12:25;;;;;;;;;;;6.80;99.90;;;;;;5071072;28;19963;-63
2023/02/05 12:14:54;;;;;;;;;;;6.80;99.90;;;;;;5054679;28;19921;-64
2023/02/05 12:17:30;;;;;;;;;;;6.80;99.90;;;;;;5065996;28;20346;-61
2023/02/05 12:19:56;;;;;;;;;;;6.90;99.90;;;;;;5070021;28;19917;-63
2023/02/05 12:22:44;;;;;;;;;;;6.80;99.90;;;;;;5065108;28;20356;-63
2023/02/05 12:25:32;;;;;;;;;;;6.80;99.90;;;;;;5069616;28;19916;-63
2023/02/05 12:28:01;;;;;;;;;;;6.80;99.90;;;;;;5069624;28;19916;-63
2023/02/05 12:30:49;;;;;;;;;;;6.80;99.90;;;;;;5068951;28;19916;-63
2023/02/05 12:33:47;;;;;;;;;;;6.80;99.90;;;;;;5064903;28;20277;-61
2023/02/05 12:36:15;;;;;;;;;;;6.80;99.90;;;;;;5019355;28;19920;-62
2023/02/05 12:38:40;;;;;;;;;;;6.80;99.90;;;;;;5066916;28;19922;-62
2023/02/05 12:41:06;;;;;;;;;;;6.80;99.90;;;;;;5064623;28;20027;-62
2023/02/05 12:43:47;;;;;;;;;;;6.80;99.90;;;;;;5065799;28;19916;-64
2023/02/05 12:46:19;;;;;;;;;;;6.80;99.90;;;;;;5065266;28;20395;-62
2023/02/05 12:48:56;;;;;;;;;;;6.80;99.90;;;;;;5067264;28;19917;-62
2023/02/05 12:51:34;;;;;;;;;;;6.80;99.90;;;;;;5065144;28;19916;-61
2023/02/05 12:54:08;;;;;;;;;;;6.80;99.90;;;;;;5063241;28;20006;-63
2023/02/05 12:56:41;;;;;;;;;;;6.80;99.90;;;;;;5065936;28;19920;-62
2023/02/05 12:59:25;;;;;;;;;;;6.80;99.90;;;;;;5064565;28;20304;-63
2023/02/05 13:01:54;;;;;;;;;;;6.80;99.90;;;;;;5062011;28;19947;-63
2023/02/05 13:04:43;;;;;;;;;;;6.80;99.90;;;;;;5066773;28;19916;-63
2023/02/05 13:07:17;;;;;;;;;;;6.80;99.90;;;;;;5043855;28;19964;-62
2023/02/05 13:09:42;;;;;;;;;;;6.80;99.90;;;;;;5062141;28;19958;-60
2023/02/05 13:12:11;;;;;;;;;;;6.80;99.90;;;;;;5064571;28;20342;-63
2023/02/05 13:14:39;;;;;;;;;;;6.80;99.90;;;;;;5065284;28;19920;-62
2023/02/05 13:17:13;;;;;;;;;;;6.80;99.90;;;;;;5063584;28;19924;-62
2023/02/05 13:19:41;;;;;;;;;;;6.80;99.90;;;;;;5064748;28;20009;-60
2023/02/05 13:28:39;;;;;;;;;;;6.80;99.90;;;;;;5066272;28;19916;-63
2023/02/05 13:31:14;;;;;;;;;;;6.80;99.90;;;;;;5051067;28;19923;-62
2023/02/05 13:33:40;;;;;;;;;;;6.80;99.90;;;;;;5065054;28;21686;-60
2023/02/05 13:36:17;;;;;;;;;;;6.80;99.90;;;;;;5067545;28;19947;-63
2023/02/05 13:38:54;;;;;;;;;;;6.80;99.90;;;;;;5048706;28;20587;-61
2023/02/05 13:41:40;;;;;;;;;;;6.80;99.90;;;;;;5063655;28;19917;-63
2023/02/05 13:44:17;;;;;;;;;;;6.80;99.90;;;;;;5065620;28;19916;-62
2023/02/05 13:46:51;;;;;;;;;;;6.80;99.90;;;;;;5067019;28;19923;-63
2023/02/05 13:49:36;;;;;;;;;;;6.80;99.90;;;;;;5066264;28;20308;-62
2023/02/05 13:52:20;;;;;;;;;;;6.80;99.90;;;;;;5066504;28;19916;-62
2023/02/05 13:54:54;;;;;;;;;;;6.80;99.90;;;;;;5065139;28;19959;-62
2023/02/05 13:57:31;;;;;;;;;;;6.80;99.90;;;;;;5068186;28;19952;-62
2023/02/05 13:59:57;;;;;;;;;;;6.80;99.90;;;;;;5062339;28;19987;-62
2023/02/05 14:02:35;;;;;;;;;;;6.70;99.90;;;;;;5065321;28;20015;-63
2023/02/05 14:05:01;;;;;;;;;;;6.80;99.90;;;;;;5065990;28;19982;-62
2023/02/05 14:07:32;;;;;;;;;;;6.70;99.90;;;;;;5068337;28;20430;-62
2023/02/05 14:09:59;;;;;;;;;;;6.70;99.90;;;;;;5071980;28;19920;-62
2023/02/05 14:12:36;;;;;;;;;;;6.70;99.90;;;;;;5067929;28;19916;-62
2023/02/05 14:15:14;;;;;;;;;;;6.70;99.90;;;;;;5065268;28;20245;-62
2023/02/05 14:17:39;;;;;;;;;;;6.70;99.90;;;;;;5066777;28;19916;-61
2023/02/05 14:20:23;;;;;;;;;;;6.70;99.90;;;;;;5068193;28;19923;-62
2023/02/05 14:22:48;;;;;;;;;;;6.70;99.90;;;;;;5065906;28;20004;-61
2023/02/05 14:25:32;;;;;;;;;;;6.70;99.90;;;;;;5064054;28;20007;-62
2023/02/05 14:27:58;;;;;;;;;;;6.70;99.90;;;;;;5063488;28;19982;-61
2023/02/05 14:30:31;;;;;;;;;;;6.70;99.90;;;;;;5066776;28;19920;-62
2023/02/05 14:33:01;;;;;;;;;;;6.70;99.90;;;;;;5067109;28;20005;-62
2023/02/05 14:35:37;;;;;;;;;;;6.70;99.90;;;;;;5066055;28;20937;-61
2023/02/05 14:38:21;;;;;;;;;;;6.70;99.90;;;;;;5067274;28;20491;-61
2023/02/05 14:40:59;;;;;;;;;;;6.70;99.90;;;;;;5067580;28;19924;-60
2023/02/05 14:43:33;;;;;;;;;;;6.70;99.90;;;;;;5057559;28;19928;-60
2023/02/05 14:46:17;;;;;;;;;;;6.80;99.90;;;;;;5063097;28;19920;-62
2023/02/05 14:48:45;;;;;;;;;;;6.80;99.90;;;;;;5065018;28;19962;-62
2023/02/05 14:51:30;;;;;;;;;;;6.80;99.90;;;;;;5064935;28;19920;-62